NRO208 LTCV-LTCW
Flight info
| Callsign | NRO208 |
|---|---|
| Flight time | 0h 34m |
| Altitude | 19000 |
| Route | 371858N0421147E DCT 372948N0431936E 372948N0432805E 372751N0433016E 372940N0433455E 372905N0434124E 373015N0434310E 373257N0434507E 373606N0434847E 373641N0435103E 373806N0435223E 373915N0435315E 374000N0435324E 374112N0435440E 374147N0435638E 374143N0435952E 374157N0440035E 374229N0440047E 374235N0440115E 374222N0440206E 374226N0440258E 374056N0440332E 374104N0440551E 374042N0440637E 374043N0440724E 373931N0440848E 373924N0440909E DCT 373458N0440934E |
| Aircraft | T154/M-SDGRWY/C |
Departure
| Time | 2026-04-27 21:22 |
|---|---|
| Airport | Şırnak Şerafettin Elçi Airport (LTCV) |
Arrival
| Time | 2026-04-27 21:57 |
|---|---|
| Airport | Hakkari Yüksekova Airport (LTCW) |
| Time | Latitude | Longitude | Altitude | Speed | Heading |
|---|---|---|---|---|---|
| 2026-04-27 20:41 | 37.36090 | 42.05922 | 2061 ft | 0 kts | 250° |
| 2026-04-27 21:13 | 37.36090 | 42.05907 | 2061 ft | 3 kts | 287° |
| 2026-04-27 21:14 | 37.36126 | 42.05875 | 2060 ft | 9 kts | 347° |
| 2026-04-27 21:14 | 37.36202 | 42.05887 | 2053 ft | 0 kts | 24° |
| 2026-04-27 21:14 | 37.36205 | 42.05888 | 2053 ft | 2 kts | 24° |
| 2026-04-27 21:14 | 37.36246 | 42.05912 | 2052 ft | 0 kts | 25° |
| 2026-04-27 21:18 | 37.36258 | 42.05919 | 2052 ft | 5 kts | 25° |
| 2026-04-27 21:18 | 37.36321 | 42.05956 | 2051 ft | 14 kts | 25° |
| 2026-04-27 21:18 | 37.36396 | 42.06016 | 2050 ft | 9 kts | 73° |
| 2026-04-27 21:19 | 37.36368 | 42.06117 | 2049 ft | 16 kts | 116° |
| 2026-04-27 21:19 | 37.36307 | 42.06266 | 2050 ft | 22 kts | 117° |
| 2026-04-27 21:19 | 37.36230 | 42.06463 | 2052 ft | 28 kts | 115° |
| 2026-04-27 21:20 | 37.36028 | 42.06995 | 2051 ft | 39 kts | 116° |
| 2026-04-27 21:20 | 37.35950 | 42.07232 | 2048 ft | 22 kts | 87° |
| 2026-04-27 21:20 | 37.35947 | 42.07348 | 2048 ft | 3 kts | 148° |
| 2026-04-27 21:20 | 37.35921 | 42.07333 | 2048 ft | 5 kts | 230° |
| 2026-04-27 21:21 | 37.35919 | 42.07292 | 2048 ft | 0 kts | 291° |
| 2026-04-27 21:22 | 37.35978 | 42.07130 | 2049 ft | 65 kts | 296° |
| 2026-04-27 21:22 | 37.36316 | 42.06241 | 2050 ft | 155 kts | 295° |
| 2026-04-27 21:22 | 37.36854 | 42.04819 | 2346 ft | 204 kts | 295° |
| 2026-04-27 21:22 | 37.37494 | 42.03115 | 3109 ft | 231 kts | 295° |
| 2026-04-27 21:23 | 37.38223 | 42.01200 | 4039 ft | 250 kts | 303° |
| 2026-04-27 21:23 | 37.39448 | 41.99746 | 5275 ft | 252 kts | 334° |
| 2026-04-27 21:23 | 37.41125 | 41.99238 | 6480 ft | 254 kts | 5° |
| 2026-04-27 21:23 | 37.42784 | 41.99841 | 7648 ft | 256 kts | 34° |
| 2026-04-27 21:24 | 37.44006 | 42.01388 | 8742 ft | 259 kts | 63° |
| 2026-04-27 21:24 | 37.44486 | 42.03533 | 9839 ft | 260 kts | 93° |
| 2026-04-27 21:24 | 37.44072 | 42.05711 | 10927 ft | 262 kts | 121° |
| 2026-04-27 21:24 | 37.42882 | 42.07362 | 11965 ft | 263 kts | 149° |
| 2026-04-27 21:25 | 37.41347 | 42.08584 | 12983 ft | 268 kts | 148° |
| 2026-04-27 21:25 | 37.39851 | 42.10014 | 13996 ft | 273 kts | 139° |
| 2026-04-27 21:25 | 37.38512 | 42.11689 | 15008 ft | 277 kts | 134° |
| 2026-04-27 21:25 | 37.37243 | 42.13442 | 15827 ft | 270 kts | 133° |
| 2026-04-27 21:26 | 37.35984 | 42.15209 | 16267 ft | 275 kts | 133° |
| 2026-04-27 21:26 | 37.34700 | 42.16994 | 16659 ft | 280 kts | 135° |
| 2026-04-27 21:26 | 37.33338 | 42.18744 | 17107 ft | 282 kts | 137° |
| 2026-04-27 21:26 | 37.32065 | 42.20628 | 17564 ft | 286 kts | 118° |
| 2026-04-27 21:27 | 37.31590 | 42.23042 | 18085 ft | 290 kts | 88° |
| 2026-04-27 21:27 | 37.32175 | 42.25443 | 18620 ft | 290 kts | 60° |
| 2026-04-27 21:27 | 37.32932 | 42.27780 | 18960 ft | 295 kts | 81° |
| 2026-04-27 21:27 | 37.33296 | 42.30380 | 19027 ft | 310 kts | 81° |
| 2026-04-27 21:28 | 37.33788 | 42.33086 | 19025 ft | 327 kts | 77° |
| 2026-04-27 21:28 | 37.34287 | 42.35907 | 19045 ft | 334 kts | 81° |
| 2026-04-27 21:28 | 37.34736 | 42.38805 | 19030 ft | 341 kts | 79° |
| 2026-04-27 21:28 | 37.35239 | 42.41729 | 19038 ft | 343 kts | 79° |
| 2026-04-27 21:29 | 37.35714 | 42.44667 | 19044 ft | 344 kts | 80° |
| 2026-04-27 21:29 | 37.36192 | 42.47628 | 19044 ft | 345 kts | 79° |
| 2026-04-27 21:29 | 37.36678 | 42.50575 | 19046 ft | 348 kts | 80° |
| 2026-04-27 21:29 | 37.37154 | 42.53543 | 19045 ft | 348 kts | 80° |
| 2026-04-27 21:30 | 37.37641 | 42.56544 | 19069 ft | 348 kts | 79° |
| 2026-04-27 21:30 | 37.38124 | 42.59531 | 19053 ft | 348 kts | 80° |
| 2026-04-27 21:30 | 37.38599 | 42.62489 | 19063 ft | 347 kts | 80° |
| 2026-04-27 21:30 | 37.39075 | 42.65438 | 19087 ft | 347 kts | 81° |
| 2026-04-27 21:31 | 37.39557 | 42.68443 | 19071 ft | 347 kts | 81° |
| 2026-04-27 21:31 | 37.40038 | 42.71431 | 19053 ft | 348 kts | 81° |
| 2026-04-27 21:31 | 37.40513 | 42.74394 | 19044 ft | 348 kts | 81° |
| 2026-04-27 21:31 | 37.40985 | 42.77359 | 19050 ft | 348 kts | 81° |
| 2026-04-27 21:32 | 37.41457 | 42.80324 | 19080 ft | 347 kts | 81° |
| 2026-04-27 21:32 | 37.41934 | 42.83320 | 19089 ft | 347 kts | 81° |
| 2026-04-27 21:32 | 37.42410 | 42.86314 | 19087 ft | 348 kts | 81° |
| 2026-04-27 21:32 | 37.42882 | 42.89288 | 19094 ft | 348 kts | 81° |
| 2026-04-27 21:33 | 37.43349 | 42.92237 | 19080 ft | 348 kts | 81° |
| 2026-04-27 21:33 | 37.43823 | 42.95236 | 19092 ft | 348 kts | 81° |
| 2026-04-27 21:33 | 37.44294 | 42.98217 | 19090 ft | 348 kts | 81° |
| 2026-04-27 21:33 | 37.44767 | 43.01222 | 19105 ft | 348 kts | 81° |
| 2026-04-27 21:34 | 37.45238 | 43.04216 | 19085 ft | 349 kts | 81° |
| 2026-04-27 21:34 | 37.45707 | 43.07200 | 19110 ft | 348 kts | 81° |
| 2026-04-27 21:34 | 37.46175 | 43.10186 | 19132 ft | 348 kts | 81° |
| 2026-04-27 21:34 | 37.46641 | 43.13163 | 19147 ft | 348 kts | 81° |
| 2026-04-27 21:35 | 37.47108 | 43.16153 | 19152 ft | 349 kts | 81° |
| 2026-04-27 21:35 | 37.47569 | 43.19113 | 19128 ft | 349 kts | 81° |
| 2026-04-27 21:35 | 37.48041 | 43.22139 | 19131 ft | 350 kts | 81° |
| 2026-04-27 21:35 | 37.48506 | 43.25137 | 19139 ft | 350 kts | 81° |
| 2026-04-27 21:36 | 37.48974 | 43.28151 | 19147 ft | 350 kts | 81° |
| 2026-04-27 21:36 | 37.49438 | 43.31147 | 19145 ft | 350 kts | 81° |
| 2026-04-27 21:36 | 37.49921 | 43.34134 | 19163 ft | 349 kts | 83° |
| 2026-04-27 21:36 | 37.50026 | 43.37165 | 19157 ft | 345 kts | 98° |
| 2026-04-27 21:37 | 37.49773 | 43.40109 | 19115 ft | 331 kts | 98° |
| 2026-04-27 21:37 | 37.49656 | 43.42933 | 19105 ft | 313 kts | 93° |
| 2026-04-27 21:37 | 37.49700 | 43.45594 | 19076 ft | 303 kts | 90° |
| 2026-04-27 21:37 | 37.49515 | 43.48163 | 19054 ft | 285 kts | 112° |
| 2026-04-27 21:38 | 37.48560 | 43.50235 | 19008 ft | 268 kts | 139° |
| 2026-04-27 21:38 | 37.47210 | 43.51781 | 18791 ft | 268 kts | 131° |
| 2026-04-27 21:38 | 37.46368 | 43.53911 | 18526 ft | 279 kts | 103° |
| 2026-04-27 21:38 | 37.46405 | 43.56395 | 18407 ft | 286 kts | 76° |
| 2026-04-27 21:39 | 37.47256 | 43.58638 | 18345 ft | 290 kts | 56° |
| 2026-04-27 21:39 | 37.48485 | 43.60667 | 18216 ft | 294 kts | 52° |
| 2026-04-27 21:39 | 37.49804 | 43.62678 | 18060 ft | 298 kts | 52° |
| 2026-04-27 21:39 | 37.51138 | 43.64686 | 17935 ft | 301 kts | 51° |
| 2026-04-27 21:40 | 37.52495 | 43.66729 | 17762 ft | 305 kts | 52° |
| 2026-04-27 21:40 | 37.53783 | 43.68854 | 17589 ft | 304 kts | 65° |
| 2026-04-27 21:40 | 37.54388 | 43.71326 | 17430 ft | 295 kts | 89° |
| 2026-04-27 21:40 | 37.54582 | 43.73889 | 17256 ft | 294 kts | 85° |
| 2026-04-27 21:41 | 37.55117 | 43.76362 | 17055 ft | 297 kts | 63° |
| 2026-04-27 21:41 | 37.56441 | 43.78385 | 16837 ft | 301 kts | 37° |
| 2026-04-27 21:41 | 37.58219 | 43.79672 | 16635 ft | 288 kts | 31° |
| 2026-04-27 21:41 | 37.59779 | 43.81151 | 16232 ft | 281 kts | 43° |
| 2026-04-27 21:42 | 37.61271 | 43.82751 | 15569 ft | 280 kts | 53° |
| 2026-04-27 21:42 | 37.62437 | 43.84680 | 15001 ft | 277 kts | 51° |
| 2026-04-27 21:42 | 37.63766 | 43.86398 | 14480 ft | 273 kts | 47° |
| 2026-04-27 21:42 | 37.65008 | 43.88201 | 13933 ft | 268 kts | 56° |
| 2026-04-27 21:43 | 37.66054 | 43.90075 | 13392 ft | 265 kts | 45° |
| 2026-04-27 21:43 | 37.67448 | 43.91572 | 12858 ft | 260 kts | 45° |
| 2026-04-27 21:43 | 37.68638 | 43.93191 | 12330 ft | 244 kts | 50° |
| 2026-04-27 21:43 | 37.69803 | 43.94697 | 11685 ft | 232 kts | 55° |
| 2026-04-27 21:44 | 37.70365 | 43.96489 | 11221 ft | 222 kts | 90° |
| 2026-04-27 21:44 | 37.70034 | 43.98361 | 11151 ft | 216 kts | 114° |
| 2026-04-27 21:44 | 37.69605 | 44.00103 | 11112 ft | 197 kts | 101° |
| 2026-04-27 21:44 | 37.69764 | 44.01746 | 10849 ft | 187 kts | 63° |
| 2026-04-27 21:45 | 37.70654 | 44.02797 | 11000 ft | 173 kts | 28° |
| 2026-04-27 21:45 | 37.71761 | 44.03316 | 11287 ft | 173 kts | 15° |
| 2026-04-27 21:45 | 37.72816 | 44.04109 | 11255 ft | 183 kts | 52° |
| 2026-04-27 21:45 | 37.73331 | 44.05551 | 11351 ft | 182 kts | 79° |
| 2026-04-27 21:46 | 37.73121 | 44.07133 | 11289 ft | 188 kts | 120° |
| 2026-04-27 21:46 | 37.72156 | 44.08187 | 11323 ft | 186 kts | 155° |
| 2026-04-27 21:46 | 37.71090 | 44.09087 | 11446 ft | 184 kts | 142° |
| 2026-04-27 21:46 | 37.70074 | 44.10099 | 11501 ft | 186 kts | 142° |
| 2026-04-27 21:47 | 37.69050 | 44.11118 | 11563 ft | 187 kts | 142° |
| 2026-04-27 21:47 | 37.68019 | 44.12144 | 11631 ft | 187 kts | 142° |
| 2026-04-27 21:47 | 37.67010 | 44.13157 | 11701 ft | 187 kts | 142° |
| 2026-04-27 21:47 | 37.65983 | 44.14196 | 11767 ft | 187 kts | 142° |
| 2026-04-27 21:48 | 37.64968 | 44.15216 | 11831 ft | 187 kts | 142° |
| 2026-04-27 21:48 | 37.63943 | 44.16240 | 11895 ft | 187 kts | 142° |
| 2026-04-27 21:48 | 37.62910 | 44.17272 | 11955 ft | 188 kts | 142° |
| 2026-04-27 21:48 | 37.61892 | 44.18296 | 12014 ft | 188 kts | 142° |
| 2026-04-27 21:49 | 37.60874 | 44.19334 | 12075 ft | 188 kts | 142° |
| 2026-04-27 21:49 | 37.59855 | 44.20373 | 12137 ft | 188 kts | 142° |
| 2026-04-27 21:49 | 37.58824 | 44.21407 | 12203 ft | 187 kts | 142° |
| 2026-04-27 21:49 | 37.57817 | 44.22441 | 12263 ft | 187 kts | 141° |
| 2026-04-27 21:50 | 37.56821 | 44.23497 | 12316 ft | 187 kts | 140° |
| 2026-04-27 21:50 | 37.55808 | 44.24584 | 12256 ft | 190 kts | 140° |
| 2026-04-27 21:50 | 37.54802 | 44.25672 | 11972 ft | 190 kts | 140° |
| 2026-04-27 21:50 | 37.53777 | 44.26722 | 11602 ft | 190 kts | 146° |
| 2026-04-27 21:51 | 37.52644 | 44.27577 | 11337 ft | 187 kts | 150° |
| 2026-04-27 21:51 | 37.51552 | 44.28472 | 11216 ft | 190 kts | 140° |
| 2026-04-27 21:51 | 37.50900 | 44.29926 | 11075 ft | 190 kts | 105° |
| 2026-04-27 21:51 | 37.50358 | 44.31427 | 10985 ft | 191 kts | 131° |
| 2026-04-27 21:52 | 37.49450 | 44.32626 | 10948 ft | 189 kts | 135° |
| 2026-04-27 21:52 | 37.48530 | 44.33794 | 10898 ft | 189 kts | 136° |
| 2026-04-27 21:52 | 37.47605 | 44.34978 | 10844 ft | 191 kts | 135° |
| 2026-04-27 21:52 | 37.46727 | 44.36208 | 10777 ft | 193 kts | 123° |
| 2026-04-27 21:53 | 37.46450 | 44.37827 | 10652 ft | 192 kts | 85° |
| 2026-04-27 21:53 | 37.47042 | 44.39319 | 10525 ft | 195 kts | 46° |
| 2026-04-27 21:53 | 37.48278 | 44.40045 | 10380 ft | 198 kts | 6° |
| 2026-04-27 21:53 | 37.49553 | 44.39475 | 10083 ft | 196 kts | 315° |
| 2026-04-27 21:54 | 37.50083 | 44.37968 | 9793 ft | 191 kts | 275° |
| 2026-04-27 21:54 | 37.50231 | 44.36431 | 9328 ft | 170 kts | 276° |
| 2026-04-27 21:54 | 37.50407 | 44.34994 | 8763 ft | 162 kts | 283° |
| 2026-04-27 21:54 | 37.50751 | 44.33686 | 8310 ft | 159 kts | 291° |
| 2026-04-27 21:55 | 37.51242 | 44.32471 | 7893 ft | 154 kts | 301° |
| 2026-04-27 21:55 | 37.51788 | 44.31339 | 7495 ft | 153 kts | 301° |
| 2026-04-27 21:55 | 37.52296 | 44.30146 | 7179 ft | 156 kts | 296° |
| 2026-04-27 21:55 | 37.52771 | 44.28911 | 6857 ft | 157 kts | 297° |
| 2026-04-27 21:56 | 37.53294 | 44.27698 | 6555 ft | 156 kts | 302° |
| 2026-04-27 21:56 | 37.54314 | 44.25329 | 6158 ft | 152 kts | 300° |
| 2026-04-27 21:56 | 37.54780 | 44.24238 | 6106 ft | 124 kts | 300° |
| 2026-04-27 21:57 | 37.55124 | 44.23453 | 6106 ft | 81 kts | 297° |
| 2026-04-27 21:57 | 37.55346 | 44.22924 | 6108 ft | 67 kts | 300° |
| 2026-04-27 21:57 | 37.55535 | 44.22481 | 6105 ft | 47 kts | 298° |
| 2026-04-27 21:57 | 37.55592 | 44.22244 | 6106 ft | 18 kts | 262° |
| 2026-04-27 21:58 | 37.55618 | 44.22170 | 6107 ft | 6 kts | 2° |
| 2026-04-27 21:58 | 37.55639 | 44.22215 | 6107 ft | 9 kts | 102° |
| 2026-04-27 21:58 | 37.55601 | 44.22323 | 6105 ft | 21 kts | 117° |
| 2026-04-27 21:58 | 37.55499 | 44.22564 | 6106 ft | 39 kts | 117° |
| 2026-04-27 21:59 | 37.55355 | 44.22903 | 6107 ft | 44 kts | 118° |
| 2026-04-27 21:59 | 37.55218 | 44.23235 | 6107 ft | 41 kts | 118° |
| 2026-04-27 21:59 | 37.55087 | 44.23553 | 6106 ft | 39 kts | 118° |
| 2026-04-27 21:59 | 37.54954 | 44.23848 | 6105 ft | 37 kts | 119° |
| 2026-04-27 22:00 | 37.54831 | 44.24128 | 6106 ft | 36 kts | 118° |
| 2026-04-27 22:00 | 37.54719 | 44.24406 | 6106 ft | 34 kts | 118° |
| 2026-04-27 22:00 | 37.54609 | 44.24667 | 6106 ft | 33 kts | 118° |
| 2026-04-27 22:00 | 37.54501 | 44.24910 | 6105 ft | 25 kts | 118° |
| 2026-04-27 22:01 | 37.54425 | 44.25085 | 6106 ft | 22 kts | 118° |
| 2026-04-27 22:01 | 37.54354 | 44.25251 | 6107 ft | 19 kts | 118° |
| 2026-04-27 22:01 | 37.54339 | 44.25362 | 6108 ft | 11 kts | 56° |
| 2026-04-27 22:01 | 37.54404 | 44.25424 | 6109 ft | 11 kts | 29° |
| 2026-04-27 22:02 | 37.54474 | 44.25473 | 6111 ft | 11 kts | 30° |
| 2026-04-27 22:02 | 37.54536 | 44.25468 | 6113 ft | 9 kts | 303° |
| 2026-04-27 22:02 | 37.54575 | 44.25434 | 6113 ft | 6 kts | 7° |
| 2026-04-27 22:02 | 37.54610 | 44.25451 | 6114 ft | 3 kts | 28° |
| 2026-04-27 22:03 | 37.54615 | 44.25454 | 6114 ft | 0 kts | 28° |